Flight Track Log - Related Links

Times and Time Zones

All times are in EDT time to prevent confusion due to time zone crossing. See the FDX12 flight status page for this flight to view local times or setup timezone preferences in your user account.

Time Position Orientation Groundspeed Altitude Reporting Facility
EDT Latitude Longitude Course Direction KTS MPH feet Rate Location/Type
Wed 08:28:45 PM 41.4667 166.7833 76° East 508 585 33,000  Level Oakland Oceanic (ODAPS)
Wed 08:46:10 PM 42.0000 170.0000 79° East 498 573 33,000  Level Oakland Oceanic (ODAPS)
Wed 08:55:24 PM 42.2333 171.7333 80° East 495 570 33,000  Level Oakland Oceanic (ODAPS)
Wed 09:22:04 PM 42.7667 176.6833 83° East 487 560 33,000  Level Oakland Oceanic (ODAPS)
Wed 09:40:36 PM 43.0000 180.0000 87° East 484 557 33,000  Level Oakland Oceanic (ODAPS)
Wed 09:48:44 PM 43.0500 -178.5833 88° East 482 555 33,000  Level Oakland Oceanic (ODAPS)
Wed 10:15:24 PM 43.1000 -173.8500 91° East 476 548 33,000 42 Level Oakland Oceanic (ODAPS)
Wed 10:35:56 PM 43.0000 -170.0000 86° East 517 595 35,000 74 Climbing Oakland Oceanic (ODAPS)
Wed 10:42:16 PM 43.0500 -168.7500 87° East 524 603 35,000  Level Oakland Oceanic (ODAPS)
Wed 11:08:56 PM 43.1000 -163.0500 92° East 541 623 35,000  Level Oakland Oceanic (ODAPS)
Wed 11:23:49 PM 43.0000 -160.0000 94° East 534 615 35,000  Level Oakland Oceanic (ODAPS)
Wed 11:35:24 PM 42.8500 -157.6667 96° East 538 619 35,000  Level Oakland Oceanic (ODAPS)
Thu 12:02:08 AM 42.3167 -152.2833 100° East 541 623 35,000  Level Oakland Oceanic (ODAPS)
Thu 12:13:37 AM 42.0000 -150.0000 94° East 565 650 35,000  Level Oakland Oceanic (ODAPS)
Thu 12:28:44 AM 41.8000 -146.9833 96° East 570 656 35,000  Level Oakland Oceanic (ODAPS)
Thu 12:55:24 AM 41.2000 -141.5000 100° East 588 677 35,000  Level Oakland Oceanic (ODAPS)
Thu 01:02:20 AM 41.0000 -140.0000 102° East 576 663 35,000  Level Oakland Oceanic (ODAPS)
Thu 01:22:05 AM 40.2333 -135.9000 105° East 574 661 35,000  Level Oakland Oceanic (ODAPS)
Thu 01:48:45 AM 39.0000 -130.6333 108° East 558 642 35,000  Level Oakland Oceanic (ODAPS)
Thu 01:52:09 AM 38.8333 -130.0000 106° East 556 640 35,000  Level Oakland Oceanic (ODAPS)
Thu 02:06:44 AM 38.2000 -127.2589 108° East 546 628 35,000 -6 Level Oakland Center
Thu 02:07:44 AM 38.1533 -127.0753 108° East 546 628 34,900 -50 Descending Oakland Center
Thu 02:08:44 AM 38.1061 -126.8944 107° East 541 623 34,900 50 Level Oakland Center
Thu 02:09:44 AM 38.0611 -126.7114 108° East 541 623 35,000 50 Climbing Oakland Center
Thu 02:10:44 AM 38.0133 -126.5283 99° East 541 623 35,000  Level Oakland Center
Thu 02:11:44 AM 37.9908 -126.3419 93° East 533 613 35,000  Level Oakland Center
Thu 02:12:44 AM 37.9814 -126.1306 98° East 547 629 35,000  Level Oakland Center
Thu 02:13:44 AM 37.9606 -125.9419 105° East 547 629 35,000  Level Oakland Center
Thu 02:14:44 AM 37.9222 -125.7575 105° East 542 624 35,000  Level Oakland Center
Thu 02:15:44 AM 37.8817 -125.5681 105° East 542 624 35,000 -50 Level Oakland Center
Thu 02:16:44 AM 37.8428 -125.3842 106° East 542 624 34,900 -50 Descending Oakland Center
Thu 02:17:44 AM 37.8017 -125.2003 106° East 542 624 34,900 50 Level Oakland Center
Thu 02:18:44 AM 37.7603 -125.0142 106° East 542 624 35,000 -800 Climbing Oakland Center
Thu 02:19:44 AM 37.7164 -124.8253 105° East 547 629 33,300 -2,300 Descending Oakland Center
Thu 02:20:44 AM 37.6767 -124.6369 107° East 552 635 30,400 -2,950 Descending Oakland Center
Thu 02:21:44 AM 37.6303 -124.4458 106° East 557 641 27,400 -3,050 Descending Oakland Center
Thu 02:22:44 AM 37.5856 -124.2550 106° East 562 647 24,300 -2,450 Descending Oakland Center
Thu 02:23:44 AM 37.5447 -124.0722 107° East 557 641 22,500 -1,550 Descending Oakland Center
Thu 02:24:44 AM 37.5053 -123.9058 106° East 529 609 21,200 -1,600 Descending Oakland Center
Thu 02:25:44 AM 37.4692 -123.7525 107° East 488 562 19,300 -2,050 Descending Oakland Center
Thu 02:26:44 AM 37.4311 -123.5969 107° East 468 539 17,100 -2,200 Descending Oakland Center
Thu 02:27:44 AM 37.3967 -123.4519 106° East 450 518 14,900 -1,850 Descending Oakland Center
Thu 02:28:44 AM 37.3642 -123.3122 107° East 434 499 13,400 -1,400 Descending Oakland Center
Thu 02:29:44 AM 37.3311 -123.1806 106° East 410 472 12,100 -1,050 Descending Oakland Center
Thu 02:30:44 AM 37.3042 -123.0625 106° East 390 449 11,300 -750 Descending Oakland Center
Thu 02:31:44 AM 37.2789 -122.9547 103° East 355 409 10,600 -650 Descending Oakland Center
Thu 02:32:44 AM 37.2597 -122.8522 74° East 324 373 10,000 -550 Descending Oakland Center
Thu 02:33:44 AM 37.2844 -122.7458 73° East 300 345 9,500 -700 Descending Oakland Center
Thu 02:34:44 AM 37.3089 -122.6419 75° East 300 345 8,600 -750 Descending Oakland Center
Thu 02:35:44 AM 37.3311 -122.5408 74° East 295 339 8,000 -300 Descending Oakland Center
Thu 02:36:44 AM 37.3533 -122.4419 80° East 295 339 8,000  Level Oakland Center
Thu 02:37:34 AM 37.3667 -122.3500 78° East 297 342 8,000  Level Northern Cal TRACON
Thu 02:38:34 AM 37.3833 -122.2500 90° East 296 341 8,000 -200 Level Northern Cal TRACON
Thu 02:39:34 AM 37.3833 -122.1500 76° East 280 322 7,600 -545 Descending Northern Cal TRACON
Thu 02:40:35 AM 37.4000 -122.0667 90° East 246 283 6,900 -893 Descending Northern Cal TRACON
Thu 02:41:35 AM 37.4000 -121.9833 28° Northeast 228 262 5,800 -942 Descending Northern Cal TRACON
Thu 02:42:36 AM 37.4500 -121.9500 332° Northwest 213 245 5,000 -417 Descending Northern Cal TRACON
Thu 02:43:30 AM 37.5000 -121.9833 345° North 210 242 5,000 -316 Level Northern Cal TRACON
Thu 02:44:30 AM 37.5500 -122.0000 310° West 192 221 4,400 -843 Descending Northern Cal TRACON
Thu 02:45:31 AM 37.5833 -122.0500 322° Northwest 190 219 3,300 -992 Descending Northern Cal TRACON
Thu 02:46:37 AM 37.6333 -122.1000 293° West 188 216 2,300 -850 Descending Northern Cal TRACON
Thu 02:47:31 AM 37.6500 -122.1500 322° Northwest 153 176 1,600 -800 Descending Northern Cal TRACON
Thu 02:48:37 AM 37.6833 -122.1833 322° Northwest 153 176 700 -818 Descending Northern Cal TRACON

Login

Don't have an account? Register now (free) for customized features, flight alerts, and more!